Time;durP1;ratioP1;P1;durP2;ratioP2;P2;SDS_P1;SDS_P2;PMS_P1;PMS_P2;Temp;Humidity;BMP_temperature;BMP_pressure;BME280_temperature;BME280_humidity;BME280_pressure;Samples;Min_cycle;Max_cycle;Signal;HPM_P1;HPM_P2
2023/01/10 00:01:26;;;;;;;37.70;7.13;;;;;;;7.17;100.00;98409.47;4830704;29;20033;-82
2023/01/10 00:03:51;;;;;;;32.28;7.38;;;;;;;7.38;100.00;98426.09;4832839;29;20030;-81
2023/01/10 00:06:17;;;;;;;39.92;7.25;;;;;;;7.51;100.00;98431.44;4829662;29;20151;-81
2023/01/10 00:08:43;;;;;;;31.10;6.97;;;;;;;7.20;100.00;98423.97;4834827;29;20045;-79
2023/01/10 00:13:54;;;;;;;36.40;7.97;;;;;;;6.90;100.00;98393.59;4825675;29;20136;-80
2023/01/10 00:16:21;;;;;;;46.83;8.73;;;;;;;6.88;100.00;98405.19;4828997;29;20042;-81
2023/01/10 00:18:47;;;;;;;44.85;7.43;;;;;;;6.75;100.00;98385.00;4832882;29;20101;-82
2023/01/10 00:21:13;;;;;;;49.40;7.10;;;;;;;7.03;100.00;98424.22;4844059;29;20030;-81
2023/01/10 00:23:40;;;;;;;30.35;7.88;;;;;;;6.88;100.00;98402.59;4831960;29;20030;-82
2023/01/10 00:26:05;;;;;;;35.92;8.30;;;;;;;6.64;100.00;98394.91;4830738;29;20038;-81
2023/01/10 00:28:33;;;;;;;36.95;7.85;;;;;;;7.03;100.00;98412.94;4830934;29;20033;-81
2023/01/10 00:31:00;;;;;;;39.40;8.80;;;;;;;7.06;100.00;98425.63;4834041;29;20029;-81
2023/01/10 00:33:32;;;;;;;34.42;9.02;;;;;;;6.89;100.00;98443.34;4830833;29;20080;-80
2023/01/10 00:36:02;;;;;;;33.53;9.65;;;;;;;7.18;100.00;98437.19;4830631;29;20196;-81
2023/01/10 00:38:35;;;;;;;33.75;7.93;;;;;;;7.27;100.00;98428.25;4834653;29;20441;-82
2023/01/10 00:41:01;;;;;;;36.65;10.68;;;;;;;7.11;100.00;98442.34;4828424;29;20090;-81
2023/01/10 00:46:11;;;;;;;42.15;9.95;;;;;;;7.13;100.00;98450.00;4844849;29;20071;-82
2023/01/10 00:48:37;;;;;;;34.67;9.35;;;;;;;7.15;100.00;98455.84;4842673;29;20030;-79
2023/01/10 00:51:04;;;;;;;35.40;8.65;;;;;;;7.19;100.00;98471.94;4837958;29;20034;-81
2023/01/10 00:53:29;;;;;;;37.70;8.30;;;;;;;6.86;100.00;98478.41;4828269;29;20094;-81
2023/01/10 00:55:59;;;;;;;33.50;7.10;;;;;;;7.05;100.00;98490.06;4831810;29;20038;-81
2023/01/10 00:58:27;;;;;;;40.17;7.20;;;;;;;7.19;100.00;98479.78;4829292;29;20038;-82
2023/01/10 01:00:53;;;;;;;29.92;6.03;;;;;;;7.09;100.00;98477.47;4834047;29;20037;-81
2023/01/10 01:03:21;;;;;;;33.30;5.95;;;;;;;7.14;100.00;98472.50;4830679;29;20374;-81
2023/01/10 01:05:48;;;;;;;32.70;5.85;;;;;;;6.69;100.00;98465.63;4833274;29;20116;-81
2023/01/10 01:08:14;;;;;;;28.65;6.22;;;;;;;6.91;100.00;98464.81;4831931;29;20603;-82
2023/01/10 01:10:40;;;;;;;31.85;6.22;;;;;;;6.79;100.00;98448.84;4830021;29;20381;-81
2023/01/10 01:13:09;;;;;;;32.70;5.72;;;;;;;6.64;100.00;98464.53;4833005;29;20038;-81
2023/01/10 01:15:35;;;;;;;29.73;5.68;;;;;;;6.51;100.00;98437.31;4830748;29;20789;-83
2023/01/10 01:18:01;;;;;;;30.17;5.63;;;;;;;6.74;100.00;98430.34;4832420;29;20066;-82
2023/01/10 01:20:27;;;;;;;39.03;5.93;;;;;;;6.56;100.00;98416.69;4829855;29;20034;-82
2023/01/10 01:22:53;;;;;;;25.23;5.60;;;;;;;6.66;100.00;98413.81;4828929;29;20026;-82
2023/01/10 01:25:19;;;;;;;26.58;5.03;;;;;;;6.80;100.00;98412.16;4830272;29;20045;-82
2023/01/10 01:27:44;;;;;;;33.92;6.80;;;;;;;6.67;100.00;98409.41;4830344;29;20038;-82
2023/01/10 01:30:11;;;;;;;29.85;5.25;;;;;;;6.64;100.00;98421.00;4828828;29;20167;-81
2023/01/10 01:32:37;;;;;;;28.77;6.07;;;;;;;6.64;100.00;98431.44;4829394;29;20498;-81
2023/01/10 01:35:04;;;;;;;22.00;4.53;;;;;;;6.76;100.00;98428.34;4827140;29;20121;-81
2023/01/10 01:37:32;;;;;;;17.80;4.55;;;;;;;6.45;100.00;98463.31;4847424;29;20049;-83
2023/01/10 01:39:58;;;;;;;41.05;6.18;;;;;;;6.63;100.00;98457.72;4835784;29;20065;-82
2023/01/10 01:42:25;;;;;;;34.28;5.75;;;;;;;6.82;100.00;98464.13;4826822;29;20038;-82
2023/01/10 01:45:08;;;;;;;32.78;6.07;;;;;;;7.03;100.00;98486.03;4828998;29;20038;-82
2023/01/10 01:48:01;;;;;;;28.58;6.40;;;;;;;7.05;100.00;98473.59;4830433;29;20517;-82
2023/01/10 01:50:41;;;;;;;22.92;4.75;;;;;;;6.98;100.00;98468.34;4844509;29;20034;-82
2023/01/10 01:53:26;;;;;;;19.65;4.60;;;;;;;7.11;100.00;98478.88;4834740;29;20034;-83
2023/01/10 01:55:56;;;;;;;29.20;4.70;;;;;;;7.05;100.00;98484.84;4827915;29;20442;-83
2023/01/10 01:58:30;;;;;;;18.50;4.72;;;;;;;7.02;100.00;98476.56;4828830;29;20393;-83
2023/01/10 02:00:57;;;;;;;;;;;;;;;6.77;100.00;98482.94;4825901;29;20079;-81
2023/01/10 02:03:24;;;;;;;29.67;5.25;;;;;;;6.86;100.00;98483.63;4830888;29;19921;-81
2023/01/10 02:05:50;;;;;;;14.77;3.80;;;;;;;7.02;100.00;98484.41;4831811;29;20045;-81
2023/01/10 02:08:16;;;;;;;28.40;4.95;;;;;;;7.02;100.00;98468.75;4836089;29;20121;-80
2023/01/10 02:10:53;;;;;;;22.77;5.00;;;;;;;7.10;100.00;98466.03;4831696;29;20125;-82
2023/01/10 02:13:23;;;;;;;19.38;4.70;;;;;;;7.10;100.00;98461.59;4827773;29;20814;-81
2023/01/10 02:15:49;;;;;;;23.80;4.85;;;;;;;7.05;100.00;98450.09;4830870;29;20117;-81
2023/01/10 02:18:15;;;;;;;26.70;5.18;;;;;;;6.77;100.00;98445.63;4827330;29;20401;-81
2023/01/10 02:21:04;;;;;;;25.70;5.00;;;;;;;7.02;100.00;98448.69;4828576;29;20500;-80
2023/01/10 02:23:32;;;;;;;22.48;4.57;;;;;;;7.07;100.00;98443.72;4828817;29;20040;-80
2023/01/10 02:26:14;;;;;;;18.27;4.68;;;;;;;7.07;100.00;98445.50;4845805;29;20126;-80
2023/01/10 02:29:17;;;;;;;25.30;4.90;;;;;;;7.08;100.00;98431.50;4842508;29;20042;-81
2023/01/10 02:32:08;;;;;;;24.73;5.35;;;;;;;7.06;100.00;98439.50;4825964;29;20086;-81
2023/01/10 02:35:09;;;;;;;25.23;4.70;;;;;;;6.99;100.00;98433.41;4831128;29;20038;-80
2023/01/10 02:37:40;;;;;;;23.73;4.93;;;;;;;7.06;100.00;98447.31;4833445;29;20031;-81
2023/01/10 02:40:17;;;;;;;39.45;6.03;;;;;;;6.77;100.00;98458.66;4833618;29;20042;-80
2023/01/10 02:42:46;;;;;;;27.30;4.90;;;;;;;7.09;100.00;98451.38;4833599;29;20029;-81
2023/01/10 02:45:23;;;;;;;21.48;4.72;;;;;;;7.14;100.00;98456.84;4833274;29;21597;-82
2023/01/10 02:47:49;;;;;;;28.55;3.75;;;;;;;6.97;100.00;98441.41;4828528;29;20048;-81
2023/01/10 02:50:18;;;;;;;17.02;3.28;;;;;;;7.15;100.00;98445.41;4831385;29;20035;-81
2023/01/10 02:52:43;;;;;;;27.05;4.97;;;;;;;6.96;100.00;98445.03;4834392;29;20574;-80
2023/01/10 02:55:09;;;;;;;21.77;4.70;;;;;;;6.94;100.00;98439.19;4829354;29;20042;-81
2023/01/10 02:58:19;;;;;;;29.80;6.72;;;;;;;7.10;100.00;98434.72;4838912;29;20034;-81
2023/01/10 03:01:05;;;;;;;24.30;4.70;;;;;;;7.09;100.00;98438.31;4830245;29;20031;-81
2023/01/10 03:04:00;;;;;;;25.08;4.10;;;;;;;7.19;100.00;98444.03;4834161;29;20389;-81
2023/01/10 03:06:54;;;;;;;36.65;4.82;;;;;;;7.16;100.00;98441.78;4833731;29;20038;-80
2023/01/10 03:09:23;;;;;;;21.58;4.13;;;;;;;7.12;100.00;98438.75;4834599;29;20098;-81
2023/01/10 03:11:54;;;;;;;22.65;5.00;;;;;;;7.06;100.00;98433.44;4842332;29;20573;-81
2023/01/10 03:14:25;;;;;;;26.27;4.38;;;;;;;7.10;100.00;98438.13;4839074;29;20049;-81
2023/01/10 03:16:56;;;;;;;26.95;5.72;;;;;;;6.99;100.00;98430.81;4825842;29;20094;-80
2023/01/10 03:19:25;;;;;;;34.17;5.22;;;;;;;7.02;100.00;98440.03;4847746;29;20073;-80
2023/01/10 03:21:55;;;;;;;30.33;4.93;;;;;;;6.80;100.00;98430.41;4839931;29;20411;-81
2023/01/10 03:24:33;;;;;;;22.08;4.53;;;;;;;6.95;100.00;98422.53;4832451;29;20446;-81
2023/01/10 03:27:35;;;;;;;28.35;5.13;;;;;;;7.06;100.00;98431.66;4831048;29;20077;-82
2023/01/10 03:30:30;;;;;;;25.73;4.70;;;;;;;7.05;100.00;98431.84;4829699;29;20056;-81
2023/01/10 03:32:58;;;;;;;36.22;6.72;;;;;;;7.04;100.00;98422.41;4834444;29;20042;-83
2023/01/10 03:35:39;;;;;;;21.20;4.18;;;;;;;7.07;100.00;98435.88;4831440;29;20034;-81
2023/01/10 03:38:14;;;;;;;26.55;4.63;;;;;;;7.02;100.00;98427.81;4844494;29;20039;-80
2023/01/10 03:41:11;;;;;;;18.20;4.43;;;;;;;7.02;100.00;98427.00;4842935;29;20398;-81
2023/01/10 03:46:36;;;;;;;30.25;5.97;;;;;;;6.59;100.00;98420.75;4832937;29;20131;-80
2023/01/10 03:49:05;;;;;;;18.00;4.18;;;;;;;6.50;100.00;98412.22;4828347;29;20034;-80
2023/01/10 03:51:31;;;;;;;26.77;5.35;;;;;;;6.69;100.00;98413.47;4832005;29;20109;-80
2023/01/10 03:54:01;;;;;;;22.77;4.47;;;;;;;6.66;100.00;98437.28;4832086;29;20034;-82
2023/01/10 03:56:26;;;;;;;29.52;5.00;;;;;;;6.72;100.00;98436.56;4831164;29;20493;-84
2023/01/10 03:58:52;;;;;;;33.28;4.68;;;;;;;6.75;100.00;98424.13;4833317;29;20038;-83
2023/01/10 04:01:18;;;;;;;27.33;4.65;;;;;;;7.09;100.00;98438.31;4829274;29;20113;-82
2023/01/10 04:03:45;;;;;;;31.83;6.35;;;;;;;7.07;100.00;98422.03;4836719;29;20058;-83
2023/01/10 04:06:11;;;;;;;31.85;5.47;;;;;;;7.20;100.00;98435.19;4832966;29;20068;-83
2023/01/10 04:08:36;;;;;;;29.10;5.25;;;;;;;7.07;100.00;98409.78;4828299;29;20029;-82
2023/01/10 04:11:03;;;;;;;37.00;6.65;;;;;;;6.88;100.00;98403.41;4835776;29;20030;-83
2023/01/10 04:13:29;;;;;;;27.52;4.70;;;;;;;7.21;100.00;98421.16;4832527;29;20034;-83
2023/01/10 04:15:54;;;;;;;23.30;4.15;;;;;;;7.26;100.00;98424.00;4827698;29;20094;-83
2023/01/10 04:18:20;;;;;;;30.20;6.13;;;;;;;7.28;100.00;98408.97;4832213;29;20156;-82
2023/01/10 04:20:45;;;;;;;26.17;4.03;;;;;;;7.36;100.00;98423.66;4832144;29;20461;-83
2023/01/10 04:23:11;;;;;;;36.42;4.68;;;;;;;7.29;100.00;98402.75;4835181;29;20660;-81
2023/01/10 04:25:37;;;;;;;28.70;5.78;;;;;;;7.36;100.00;98420.28;4834775;29;20116;-83
2023/01/10 04:28:02;;;;;;;32.92;4.38;;;;;;;7.28;100.00;98414.19;4834405;29;20082;-84
2023/01/10 04:30:28;;;;;;;22.20;4.43;;;;;;;7.29;100.00;98413.19;4830890;29;20063;-84
2023/01/10 04:32:53;;;;;;;21.88;5.72;;;;;;;7.33;100.00;98397.16;4837584;29;20050;-84
2023/01/10 04:35:19;;;;;;;27.77;4.93;;;;;;;7.26;100.00;98397.88;4830444;29;20045;-84
2023/01/10 04:37:45;;;;;;;24.65;4.68;;;;;;;7.40;100.00;98405.84;4830608;29;20113;-84
2023/01/10 04:40:11;;;;;;;20.20;4.90;;;;;;;7.48;100.00;98410.13;4833257;29;20050;-84
2023/01/10 04:42:38;;;;;;;39.53;6.82;;;;;;;7.52;100.00;98400.91;4832652;29;20038;-84
2023/01/10 04:45:04;;;;;;;24.38;5.07;;;;;;;7.52;100.00;98388.66;4829498;29;20374;-84
2023/01/10 04:47:30;;;;;;;25.67;4.78;;;;;;;7.42;100.00;98396.00;4831544;29;20038;-85
2023/01/10 04:49:56;;;;;;;33.53;4.82;;;;;;;7.32;100.00;98393.72;4837323;29;20034;-83
2023/01/10 04:52:24;;;;;;;33.58;5.22;;;;;;;7.26;100.00;98387.44;4830741;29;20054;-83
2023/01/10 04:54:49;;;;;;;26.02;4.40;;;;;;;7.34;100.00;98383.09;4832126;29;20041;-82
2023/01/10 04:57:15;;;;;;;28.02;5.07;;;;;;;7.24;100.00;98363.34;4830908;29;20042;-82
2023/01/10 04:59:40;;;;;;;28.65;4.22;;;;;;;7.22;100.00;98375.00;4827570;29;20046;-83
2023/01/10 05:02:06;;;;;;;23.42;5.55;;;;;;;7.15;100.00;98369.72;4837214;29;20049;-83
2023/01/10 05:04:31;;;;;;;25.35;4.28;;;;;;;7.21;100.00;98355.91;4845361;29;20034;-83
2023/01/10 05:06:57;;;;;;;25.70;4.65;;;;;;;7.17;100.00;98352.06;4828302;29;20520;-82
2023/01/10 05:09:22;;;;;;;30.40;4.63;;;;;;;7.14;100.00;98347.22;4830476;29;20045;-83
2023/01/10 05:11:48;;;;;;;33.63;5.50;;;;;;;7.09;100.00;98360.03;4830080;29;20042;-83
2023/01/10 05:14:14;;;;;;;23.23;4.93;;;;;;;7.06;100.00;98342.13;4832308;29;20035;-82
2023/01/10 05:16:39;;;;;;;32.63;4.68;;;;;;;7.06;100.00;98347.34;4831103;29;20417;-82
2023/01/10 05:19:05;;;;;;;24.77;4.85;;;;;;;7.08;100.00;98354.00;4830771;29;20100;-83
2023/01/10 05:21:30;;;;;;;27.50;5.38;;;;;;;6.95;100.00;98357.31;4828877;29;20477;-81
2023/01/10 05:23:56;;;;;;;35.40;5.03;;;;;;;7.07;100.00;98348.94;4825481;29;20045;-81
2023/01/10 05:26:22;;;;;;;33.42;4.57;;;;;;;7.14;100.00;98339.38;4836052;29;20382;-81
2023/01/10 05:28:48;;;;;;;22.15;5.97;;;;;;;7.12;100.00;98325.72;4831761;29;20053;-81
2023/01/10 05:31:16;;;;;;;20.25;5.25;;;;;;;7.10;100.00;98325.09;4835484;29;20054;-81
2023/01/10 05:33:50;;;;;;;29.08;5.63;;;;;;;7.17;100.00;98331.19;4826923;29;20401;-82
2023/01/10 05:36:17;;;;;;;27.67;5.72;;;;;;;7.07;100.00;98317.63;4831880;29;20105;-82
2023/01/10 05:38:43;;;;;;;33.58;4.80;;;;;;;6.84;100.00;98295.19;4830818;29;20040;-82
2023/01/10 05:41:09;;;;;;;20.17;3.58;;;;;;;7.05;100.00;98307.41;4831438;29;20110;-82
2023/01/10 05:43:35;;;;;;;29.63;4.50;;;;;;;7.11;100.00;98304.03;4827066;29;20460;-82
2023/01/10 05:46:01;;;;;;;18.73;4.47;;;;;;;7.17;100.00;98301.66;4826411;29;20038;-81
2023/01/10 05:48:27;;;;;;;36.63;5.25;;;;;;;7.20;100.00;98314.34;4827492;29;20041;-82
2023/01/10 05:50:53;;;;;;;40.88;4.70;;;;;;;6.93;100.00;98288.03;4837264;29;20057;-81
2023/01/10 05:53:19;;;;;;;27.23;4.80;;;;;;;7.08;100.00;98290.56;4827625;29;20592;-82
2023/01/10 05:55:59;;;;;;;22.77;4.30;;;;;;;7.21;100.00;98290.63;4836665;29;20038;-82
2023/01/10 05:58:25;;;;;;;27.63;5.63;;;;;;;7.08;100.00;98282.75;4832024;29;20043;-81
2023/01/10 06:00:53;;;;;;;30.33;4.78;;;;;;;7.04;100.00;98279.69;4829186;29;20030;-81
2023/01/10 06:03:19;;;;;;;37.03;5.30;;;;;;;7.06;100.00;98276.88;4836562;29;20056;-81
2023/01/10 06:05:45;;;;;;;21.75;4.32;;;;;;;7.11;100.00;98279.75;4827008;29;20029;-81
2023/01/10 06:08:11;;;;;;;22.35;5.53;;;;;;;7.20;100.00;98283.81;4843342;29;20057;-81
2023/01/10 06:10:36;;;;;;;34.92;5.30;;;;;;;7.12;100.00;98265.69;4828787;29;20064;-81
2023/01/10 06:13:04;;;;;;;27.70;4.90;;;;;;;7.16;100.00;98264.31;4833494;29;20030;-82
2023/01/10 06:15:30;;;;;;;37.20;4.97;;;;;;;7.27;100.00;98276.84;4849969;29;20034;-83
2023/01/10 06:17:56;;;;;;;28.90;4.63;;;;;;;6.68;100.00;98268.41;4832808;29;20396;-82
2023/01/10 06:20:21;;;;;;;33.75;4.88;;;;;;;7.25;100.00;98276.19;4833628;29;20026;-81
2023/01/10 06:22:47;;;;;;;26.92;4.15;;;;;;;7.24;100.00;98271.97;4840579;29;20037;-82
2023/01/10 06:25:13;;;;;;;22.67;4.57;;;;;;;7.36;100.00;98274.06;4839544;29;20029;-81
2023/01/10 06:27:42;;;;;;;21.15;3.80;;;;;;;7.29;100.00;98267.00;4840361;29;20034;-82
2023/01/10 06:30:12;;;;;;;28.98;4.35;;;;;;;7.30;100.00;98257.34;4839784;29;20030;-82
2023/01/10 06:32:39;;;;;;;30.00;5.68;;;;;;;7.34;100.00;98247.34;4835312;29;20050;-82
2023/01/10 06:35:05;;;;;;;26.15;4.75;;;;;;;7.24;100.00;98248.50;4831845;29;20037;-82
2023/01/10 06:37:31;;;;;;;26.05;4.88;;;;;;;7.27;100.00;98247.31;4836211;29;20389;-82
2023/01/10 06:39:57;;;;;;;37.67;5.10;;;;;;;6.99;100.00;98241.13;4834683;29;20053;-81
2023/01/10 06:42:23;;;;;;;23.20;3.97;;;;;;;6.99;100.00;98241.13;4840467;29;20038;-82
2023/01/10 06:44:49;;;;;;;27.67;4.10;;;;;;;7.10;100.00;98231.94;4841333;29;20098;-82
2023/01/10 06:47:14;;;;;;;29.48;5.82;;;;;;;7.14;100.00;98217.50;4831296;29;20054;-82
2023/01/10 06:49:39;;;;;;;25.25;4.65;;;;;;;7.23;100.00;98212.16;4833954;29;20101;-83
2023/01/10 06:52:05;;;;;;;35.53;6.03;;;;;;;6.89;100.00;98218.97;4835236;29;20042;-81
2023/01/10 06:54:31;;;;;;;23.05;4.10;;;;;;;7.00;100.00;98210.63;4831472;29;20109;-82
2023/01/10 06:56:57;;;;;;;36.28;5.57;;;;;;;7.04;100.00;98190.16;4836695;29;20065;-81
2023/01/10 06:59:23;;;;;;;44.08;5.80;;;;;;;6.99;100.00;98182.94;4830908;29;20123;-82
2023/01/10 07:01:48;;;;;;;30.88;4.55;;;;;;;7.04;100.00;98184.94;4831817;29;20086;-83
2023/01/10 07:04:14;;;;;;;29.83;6.72;;;;;;;7.12;100.00;98192.63;4830421;29;20031;-83
2023/01/10 07:06:40;;;;;;;23.63;4.97;;;;;;;6.91;100.00;98176.06;4839221;29;20517;-81
2023/01/10 07:09:07;;;;;;;27.98;4.80;;;;;;;7.29;100.00;98180.88;4830910;29;20075;-85
2023/01/10 07:11:34;;;;;;;29.63;5.18;;;;;;;7.37;100.00;98173.84;4836956;29;20062;-85
2023/01/10 07:14:00;;;;;;;30.20;4.40;;;;;;;7.27;100.00;98164.59;4837142;29;20049;-86
2023/01/10 07:16:26;;;;;;;26.00;4.57;;;;;;;7.21;100.00;98164.56;4829194;29;20129;-87
2023/01/10 07:18:52;;;;;;;21.20;4.85;;;;;;;6.90;100.00;98142.31;4838388;29;20519;-84
2023/01/10 07:21:18;;;;;;;16.40;3.75;;;;;;;6.99;100.00;98147.19;4831368;29;20042;-85
2023/01/10 07:23:51;;;;;;;28.00;3.85;;;;;;;7.03;100.00;98136.34;4832534;29;20406;-83
2023/01/10 07:26:18;;;;;;;23.73;4.70;;;;;;;6.94;100.00;98138.31;4832800;29;20046;-84
2023/01/10 07:28:49;;;;;;;24.45;4.43;;;;;;;6.46;100.00;98105.97;4840251;29;20081;-86
2023/01/10 07:31:17;;;;;;;21.55;4.40;;;;;;;6.79;100.00;98121.00;4815992;29;20494;-87
2023/01/10 07:33:43;;;;;;;26.85;4.10;;;;;;;6.75;100.00;98100.72;4831129;29;20068;-87
2023/01/10 07:36:09;;;;;;;29.25;4.82;;;;;;;6.97;100.00;98122.28;4843600;29;20042;-84
2023/01/10 07:38:36;;;;;;;20.60;4.03;;;;;;;6.66;100.00;98106.06;4833065;29;20481;-87
2023/01/10 07:41:02;;;;;;;16.85;4.40;;;;;;;6.53;100.00;98117.22;4832753;29;20374;-88
2023/01/10 07:43:28;;;;;;;26.15;4.10;;;;;;;6.51;100.00;98108.81;4830890;29;20168;-86
2023/01/10 07:45:58;;;;;;;19.73;3.47;;;;;;;6.53;100.00;98106.00;4841633;29;20034;-85
2023/01/10 07:48:24;;;;;;;23.63;4.28;;;;;;;6.56;100.00;98087.38;4833769;29;20034;-85
2023/01/10 07:50:55;;;;;;;11.90;3.28;;;;;;;6.62;100.00;98088.41;4833762;29;20049;-87
2023/01/10 07:53:21;;;;;;;15.85;3.53;;;;;;;6.72;100.00;98079.25;4828334;29;20102;-89
2023/01/10 07:55:46;;;;;;;19.30;3.65;;;;;;;6.66;100.00;98084.41;4830775;29;20038;-87
2023/01/10 07:58:13;;;;;;;27.15;3.63;;;;;;;6.60;100.00;98048.69;4836046;29;20525;-86
2023/01/10 08:00:39;;;;;;;18.92;3.25;;;;;;;6.32;100.00;98063.38;4818472;29;20049;-84
2023/01/10 08:03:12;;;;;;;22.55;3.30;;;;;;;6.45;100.00;98072.25;4829333;29;20041;-86
2023/01/10 08:05:37;;;;;;;21.77;3.30;;;;;;;6.71;100.00;98069.81;4827342;29;20061;-86
2023/01/10 08:08:08;;;;;;;18.85;3.45;;;;;;;6.61;100.00;98056.31;4828458;29;20038;-86
2023/01/10 08:10:58;;;;;;;20.05;3.20;;;;;;;6.37;100.00;98014.06;4844765;29;20038;-86
2023/01/10 08:13:25;;;;;;;19.73;3.30;;;;;;;6.50;100.00;98002.91;4825446;29;20038;-90
2023/01/10 08:15:51;;;;;;;19.60;3.38;;;;;;;6.64;100.00;98008.19;4842057;29;20034;-88
2023/01/10 08:18:21;;;;;;;14.43;2.83;;;;;;;6.78;100.00;98011.66;4839992;29;20038;-83
2023/01/10 08:20:49;;;;;;;18.10;3.60;;;;;;;6.80;100.00;98004.44;4834629;29;20030;-84
2023/01/10 08:23:15;;;;;;;19.13;3.33;;;;;;;6.68;100.00;97973.72;4839924;29;20030;-85
2023/01/10 08:25:42;;;;;;;19.95;3.60;;;;;;;6.73;100.00;97960.06;4831367;29;20566;-84
2023/01/10 08:28:07;;;;;;;21.33;3.40;;;;;;;6.97;100.00;97961.34;4833888;29;20042;-81
2023/01/10 08:31:03;;;;;;;18.52;3.80;;;;;;;7.10;100.00;97964.97;4841125;29;20119;-83
2023/01/10 08:33:28;;;;;;;24.83;3.65;;;;;;;7.17;100.00;97949.31;4831180;29;20031;-85
2023/01/10 08:35:54;;;;;;;20.55;3.65;;;;;;;7.07;100.00;97934.03;4830701;29;20041;-84
2023/01/10 08:38:19;;;;;;;25.05;4.75;;;;;;;7.04;100.00;97922.22;4829750;29;20033;-85
2023/01/10 08:40:45;;;;;;;18.73;5.22;;;;;;;6.91;100.00;97907.34;4830693;29;20038;-85
2023/01/10 08:43:11;;;;;;;13.52;4.70;;;;;;;7.09;100.00;97905.97;4825808;29;20062;-84
2023/01/10 08:45:38;;;;;;;21.20;4.68;;;;;;;6.88;100.00;97888.69;4831635;29;20042;-84
2023/01/10 08:48:04;;;;;;;25.23;4.85;;;;;;;6.91;100.00;97885.66;4838042;29;20091;-84
2023/01/10 08:50:30;;;;;;;22.65;5.45;;;;;;;7.16;100.00;97880.66;4833736;29;20437;-84
2023/01/10 08:53:00;;;;;;;26.55;6.00;;;;;;;7.17;100.00;97873.63;4828019;29;20497;-87
2023/01/10 08:55:27;;;;;;;25.52;5.95;;;;;;;7.14;100.00;97873.03;4830650;29;20525;-88
2023/01/10 08:57:53;;;;;;;23.60;6.07;;;;;;;7.26;100.00;97865.38;4829393;29;20036;-84
2023/01/10 09:00:19;;;;;;;16.00;5.22;;;;;;;7.34;100.00;97858.38;4833806;29;20038;-85
2023/01/10 09:02:45;;;;;;;28.85;5.65;;;;;;;7.08;100.00;97832.09;4823786;29;20026;-86
2023/01/10 09:05:10;;;;;;;19.50;6.15;;;;;;;7.12;100.00;97835.09;4836637;29;20103;-86
2023/01/10 09:07:37;;;;;;;22.75;5.35;;;;;;;7.01;100.00;97831.31;4831852;29;20050;-86
2023/01/10 09:10:03;;;;;;;14.18;4.93;;;;;;;7.03;100.00;97812.81;4826703;29;20038;-85
2023/01/10 09:15:13;;;;;;;26.17;5.85;;;;;;;7.32;100.00;97806.34;4821927;29;20041;-88
2023/01/10 09:17:39;;;;;;;19.30;5.45;;;;;;;7.34;100.00;97795.72;4835496;29;20435;-86
2023/01/10 09:20:08;;;;;;;18.80;5.65;;;;;;;7.26;100.00;97786.31;4832265;29;20374;-85
2023/01/10 09:22:37;;;;;;;16.83;5.60;;;;;;;7.49;100.00;97777.22;4833863;29;20109;-86
2023/01/10 09:25:04;;;;;;;17.33;5.15;;;;;;;7.66;100.00;97770.53;4832797;29;20099;-85
2023/01/10 09:27:30;;;;;;;18.08;5.85;;;;;;;7.39;100.00;97769.81;4832522;29;20543;-87
2023/01/10 09:29:55;;;;;;;20.33;5.28;;;;;;;7.32;100.00;97748.94;4829199;29;20042;-86
2023/01/10 09:32:21;;;;;;;15.65;4.40;;;;;;;7.43;100.00;97744.88;4828280;29;20046;-87
2023/01/10 09:34:46;;;;;;;15.95;4.70;;;;;;;7.57;100.00;97756.91;4844004;29;20532;-87
2023/01/10 09:37:12;;;;;;;12.10;4.38;;;;;;;7.65;100.00;97739.38;4837687;29;20121;-87
2023/01/10 09:39:37;;;;;;;10.55;3.58;;;;;;;7.50;100.00;97735.25;4828348;29;20027;-82
2023/01/10 09:42:21;;;;;;;7.75;2.90;;;;;;;7.68;100.00;97731.16;4829349;29;20033;-80
2023/01/10 09:45:15;;;;;;;6.97;2.75;;;;;;;7.62;100.00;97716.28;4833201;29;20042;-80
2023/01/10 09:47:56;;;;;;;13.18;3.05;;;;;;;7.65;100.00;97710.66;4849611;29;20105;-80
2023/01/10 09:50:44;;;;;;;6.38;2.65;;;;;;;7.91;100.00;97693.25;4850110;29;20050;-80
2023/01/10 09:53:12;;;;;;;8.48;2.50;;;;;;;7.94;100.00;97703.28;4830830;29;20049;-81
2023/01/10 09:55:40;;;;;;;7.00;3.10;;;;;;;7.70;100.00;97687.34;4831397;29;20065;-86
2023/01/10 09:58:15;;;;;;;5.07;2.55;;;;;;;7.56;100.00;97665.69;4840839;29;20487;-85
2023/01/10 10:00:53;;;;;;;6.97;2.65;;;;;;;7.95;100.00;97674.31;4832560;29;20046;-86
2023/01/10 10:03:53;;;;;;;8.68;3.03;;;;;;;8.08;100.00;97652.53;4832630;29;20044;-84
2023/01/10 10:06:21;;;;;;;7.80;2.33;;;;;;;7.97;100.00;97645.38;4831547;29;20061;-86
2023/01/10 10:08:51;;;;;;;5.25;2.33;;;;;;;8.20;100.00;97651.84;4844965;29;20045;-85
2023/01/10 10:11:24;;;;;;;4.32;2.10;;;;;;;8.10;100.00;97655.75;4836160;29;20045;-87
2023/01/10 10:14:06;;;;;;;4.97;1.77;;;;;;;7.72;100.00;97635.69;4846248;29;20042;-84
2023/01/10 10:16:40;;;;;;;8.00;2.30;;;;;;;8.13;100.00;97639.63;4832668;29;20033;-85
2023/01/10 10:19:17;;;;;;;7.75;2.42;;;;;;;8.39;100.00;97626.56;4834525;29;20517;-85
2023/01/10 10:21:46;;;;;;;5.60;2.13;;;;;;;8.40;100.00;97622.91;4851851;29;20052;-84
2023/01/10 10:24:24;;;;;;;5.32;2.90;;;;;;;8.39;100.00;97610.88;4849293;29;20042;-87
2023/01/10 10:26:58;;;;;;;6.43;2.80;;;;;;;8.31;100.00;97603.28;4835754;29;20122;-87
2023/01/10 10:29:45;;;;;;;3.67;2.50;;;;;;;8.43;100.00;97578.81;4832930;29;20022;-84
2023/01/10 10:32:13;;;;;;;5.57;3.20;;;;;;;8.33;100.00;97580.34;4832191;29;20054;-86
2023/01/10 10:34:46;;;;;;;6.40;3.30;;;;;;;8.18;100.00;97572.84;4847889;29;20125;-84
2023/01/10 10:37:31;;;;;;;10.20;4.25;;;;;;;8.71;100.00;97577.56;4831842;29;20644;-84
2023/01/10 10:40:07;;;;;;;7.88;2.88;;;;;;;8.65;100.00;97569.78;4832447;29;20101;-84
2023/01/10 10:42:48;;;;;;;36.97;7.43;;;;;;;8.52;100.00;97545.38;4843201;29;20044;-86
2023/01/10 10:45:27;;;;;;;5.75;2.83;;;;;;;8.41;100.00;97539.03;4838225;29;20038;-86
2023/01/10 10:48:04;;;;;;;6.72;3.88;;;;;;;8.64;100.00;97544.66;4832069;29;20038;-85
2023/01/10 10:50:33;;;;;;;8.27;3.90;;;;;;;8.67;100.00;97537.19;4827147;29;20588;-86
2023/01/10 10:53:01;;;;;;;10.52;4.53;;;;;;;8.91;100.00;97537.28;4839809;29;20045;-85
2023/01/10 10:55:35;;;;;;;8.82;4.30;;;;;;;8.78;100.00;97529.59;4833427;29;20094;-84
2023/01/10 10:58:06;;;;;;;9.27;4.75;;;;;;;8.71;100.00;97529.66;4840519;29;20082;-86
2023/01/10 11:00:32;;;;;;;8.15;4.40;;;;;;;8.92;100.00;97511.91;4827429;29;20037;-85
2023/01/10 11:03:06;;;;;;;11.15;5.93;;;;;;;8.82;100.00;97505.41;4834259;29;20035;-85
2023/01/10 11:05:37;;;;;;;18.25;6.90;;;;;;;9.09;100.00;97515.50;4836237;29;20044;-84
2023/01/10 11:08:12;;;;;;;10.32;4.35;;;;;;;9.04;100.00;97518.00;4832787;29;20064;-87
2023/01/10 11:10:39;;;;;;;11.38;4.93;;;;;;;9.19;100.00;97519.41;4849758;29;20049;-86
2023/01/10 11:13:21;;;;;;;7.75;4.35;;;;;;;9.05;100.00;97516.19;4833382;29;20057;-85
2023/01/10 11:15:49;;;;;;;9.00;4.85;;;;;;;9.09;100.00;97494.56;4834209;29;20089;-85
2023/01/10 11:18:19;;;;;;;6.13;3.55;;;;;;;8.96;100.00;97500.78;4832501;29;20039;-85
2023/01/10 11:20:51;;;;;;;4.10;2.78;;;;;;;9.30;100.00;97500.31;4835684;29;20037;-85
2023/01/10 11:23:23;;;;;;;7.47;3.70;;;;;;;9.13;100.00;97480.00;4832553;29;20393;-85
2023/01/10 11:25:49;;;;;;;7.60;3.63;;;;;;;9.36;100.00;97460.16;4831778;29;20117;-85
2023/01/10 11:28:17;;;;;;;8.45;4.75;;;;;;;9.44;100.00;97461.66;4836962;29;20077;-85
2023/01/10 11:30:47;;;;;;;5.07;3.50;;;;;;;9.42;100.00;97461.88;4833828;29;20026;-86
2023/01/10 11:33:25;;;;;;;6.05;3.97;;;;;;;9.54;100.00;97467.09;4834578;29;20474;-84
2023/01/10 11:36:02;;;;;;;4.47;3.55;;;;;;;9.49;100.00;97460.94;4830553;29;20463;-86
2023/01/10 11:38:30;;;;;;;6.82;4.20;;;;;;;9.46;100.00;97451.75;4835875;29;20030;-85
2023/01/10 11:40:58;;;;;;;6.93;3.50;;;;;;;9.37;100.00;97450.47;4833303;29;20032;-85
2023/01/10 11:43:32;;;;;;;4.43;3.13;;;;;;;9.58;100.00;97422.94;4833217;29;20049;-86
2023/01/10 11:46:04;;;;;;;5.63;4.00;;;;;;;9.61;100.00;97406.75;4831416;29;20041;-85
2023/01/10 11:49:04;;;;;;;7.43;4.32;;;;;;;9.74;100.00;97395.25;4826622;29;20043;-86
2023/01/10 11:51:35;;;;;;;5.90;4.38;;;;;;;9.84;100.00;97386.78;4852566;29;20034;-85